Terminal Aerodrome Forecast
Issued by NWS

Home | Current Version | Previous Version | Text Only | Print | Product List | Glossary On
Versions: 1 2 3 4 5 6 7 8 9 10 11 12 13 14 15 16 17 18 19 20 21 22 23 24 25 26 27
000
FTUS41 KOKX 212000 AAA
TAFTEB
TAF AMD
KTEB 212019Z 2120/2218 VRB04KT P6SM SCT025 BKN060
      TEMPO 2120/2123 BKN025
     FM220700 02006KT 6SM -SHRA BKN020
     FM221200 02010G16KT 6SM -SHRA BKN010=

USA.gov is the U.S. government's official web portal to all federal, state and local government web resources and services.